createdAt,value
2018-12-20T00:01:29.950Z,100.14
2018-12-20T00:04:33.587Z,99.54
2018-12-20T00:07:37.232Z,99.13
2018-12-20T00:10:40.817Z,99.21
2018-12-20T00:13:44.584Z,98.79
2018-12-20T00:16:52.329Z,98.43
2018-12-20T00:19:56.001Z,98.27
2018-12-20T00:22:59.590Z,98.02
2018-12-20T00:26:03.343Z,98.63
2018-12-20T00:29:07.050Z,98.43
2018-12-20T00:32:10.654Z,98.56
2018-12-20T00:35:14.295Z,98.37
2018-12-20T00:38:17.777Z,98.55
2018-12-20T00:41:21.504Z,98.60
2018-12-20T00:44:25.201Z,98.21
2018-12-20T00:47:28.738Z,98.69
2018-12-20T00:50:32.483Z,98.92
2018-12-20T00:53:36.158Z,98.60
2018-12-20T00:56:39.803Z,99.16
2018-12-20T00:59:43.500Z,99.69
2018-12-20T01:02:47.364Z,100.14
2018-12-20T01:05:53.328Z,100.33
2018-12-20T01:08:56.864Z,100.05
2018-12-20T01:12:00.466Z,100.30
2018-12-20T01:15:04.835Z,100.19
2018-12-20T01:18:08.423Z,100.11
2018-12-20T01:21:12.043Z,100.34
2018-12-20T01:24:15.613Z,100.49
2018-12-20T01:27:19.310Z,100.51
2018-12-20T01:30:23.030Z,100.87
2018-12-20T01:33:26.825Z,100.50
2018-12-20T01:36:30.322Z,100.88
2018-12-20T01:39:34.037Z,101.09
2018-12-20T01:42:37.870Z,101.23
2018-12-20T01:45:41.914Z,101.20
2018-12-20T01:48:45.389Z,101.30
2018-12-20T01:51:49.195Z,101.23
2018-12-20T01:54:53.155Z,101.46
2018-12-20T01:57:56.919Z,101.40
2018-12-20T02:01:00.499Z,101.14
2018-12-20T02:04:04.073Z,101.69
2018-12-20T02:07:07.626Z,102.02
2018-12-20T02:10:11.418Z,101.68
2018-12-20T02:13:15.049Z,101.87
2018-12-20T02:16:18.759Z,101.82
2018-12-20T02:19:22.349Z,101.40
2018-12-20T02:22:26.078Z,102.04
2018-12-20T02:25:29.679Z,102.46
2018-12-20T02:28:33.477Z,102.23
2018-12-20T02:31:37.089Z,102.30
2018-12-20T02:34:40.725Z,102.02
2018-12-20T02:37:44.524Z,102.04
2018-12-20T02:40:48.132Z,102.34
2018-12-20T02:43:51.743Z,102.61
2018-12-20T02:46:55.393Z,102.72
2018-12-20T02:49:59.060Z,102.65
2018-12-20T02:53:02.719Z,102.65
2018-12-20T02:56:06.155Z,102.66
2018-12-20T02:59:10.267Z,102.90
2018-12-20T03:02:14.049Z,102.68
2018-12-20T03:05:17.719Z,102.59
2018-12-20T03:08:21.400Z,101.95
2018-12-20T03:11:25.077Z,102.08
2018-12-20T03:14:28.964Z,102.10
2018-12-20T03:17:32.718Z,102.17
2018-12-20T03:20:36.545Z,101.88
2018-12-20T03:23:40.172Z,102.04
2018-12-20T03:26:43.762Z,102.20
2018-12-20T03:29:47.431Z,102.67
2018-12-20T03:32:50.993Z,103.03
2018-12-20T03:35:54.486Z,102.36
2018-12-20T03:38:58.712Z,102.03
2018-12-20T03:42:02.236Z,101.82
2018-12-20T03:45:06.139Z,101.64
2018-12-20T03:48:09.694Z,101.78
2018-12-20T03:51:13.494Z,101.40
2018-12-20T03:54:17.379Z,101.22
2018-12-20T03:57:21.040Z,100.91
2018-12-20T04:00:24.946Z,100.78
2018-12-20T04:03:28.781Z,100.75
2018-12-20T04:06:32.346Z,100.71
2018-12-20T04:09:35.826Z,101.20
2018-12-20T04:12:39.426Z,101.43
2018-12-20T04:15:43.124Z,101.19
2018-12-20T04:18:46.771Z,100.66
2018-12-20T04:21:50.363Z,100.98
2018-12-20T04:24:53.925Z,100.49
2018-12-20T04:27:57.574Z,100.32
2018-12-20T04:31:01.389Z,100.72
2018-12-20T04:34:05.080Z,101.12
2018-12-20T04:37:08.710Z,100.89
2018-12-20T04:40:12.336Z,99.81
2018-12-20T04:43:16.097Z,99.27
2018-12-20T04:46:19.686Z,99.75
2018-12-20T04:49:23.241Z,99.24
2018-12-20T04:52:26.941Z,99.53
2018-12-20T04:55:30.584Z,99.95
2018-12-20T04:58:34.092Z,100.00
2018-12-20T05:01:37.550Z,100.24
2018-12-20T05:04:41.207Z,100.28
2018-12-20T05:07:45.070Z,100.61
2018-12-20T05:10:48.758Z,100.12
2018-12-20T05:13:53.439Z,99.69
2018-12-20T05:16:57.186Z,99.28
2018-12-20T05:20:00.848Z,99.53
2018-12-20T05:23:04.822Z,99.12
2018-12-20T05:26:08.548Z,99.07
2018-12-20T05:29:12.114Z,98.69
2018-12-20T05:32:15.563Z,99.76
2018-12-20T05:35:19.227Z,100.12
2018-12-20T05:38:22.879Z,99.60
2018-12-20T05:41:26.571Z,100.00
2018-12-20T05:44:30.279Z,99.88
2018-12-20T05:47:34.213Z,99.98
2018-12-20T05:50:37.820Z,100.38
2018-12-20T05:53:41.374Z,100.08
2018-12-20T05:56:45.364Z,100.22
2018-12-20T05:59:49.233Z,100.29
2018-12-20T06:02:53.436Z,100.37
2018-12-20T06:05:57.158Z,100.27
2018-12-20T06:09:00.880Z,99.82
2018-12-20T06:12:04.732Z,100.46
2018-12-20T06:15:08.613Z,100.17
2018-12-20T06:18:12.147Z,100.71
2018-12-20T06:21:16.727Z,100.89
2018-12-20T06:24:20.342Z,100.94
2018-12-20T06:27:23.811Z,99.98
2018-12-20T06:30:27.321Z,99.98
2018-12-20T06:33:31.006Z,100.09
2018-12-20T06:36:34.493Z,99.90
2018-12-20T06:39:37.911Z,100.22
2018-12-20T06:42:41.415Z,99.37
2018-12-20T06:45:44.946Z,99.85
2018-12-20T06:48:48.438Z,99.83
2018-12-20T06:51:52.025Z,99.86
2018-12-20T06:54:55.538Z,100.04
2018-12-20T06:57:59.144Z,100.08
2018-12-20T07:01:02.676Z,100.49
2018-12-20T07:04:06.207Z,99.93
2018-12-20T07:07:09.706Z,100.27
2018-12-20T07:10:13.346Z,99.83
2018-12-20T07:13:16.900Z,99.80
2018-12-20T07:16:20.466Z,100.18
2018-12-20T07:19:24.092Z,99.68
2018-12-20T07:22:27.782Z,98.60
2018-12-20T07:25:31.212Z,98.51
2018-12-20T07:28:34.702Z,98.77
2018-12-20T07:31:38.196Z,99.72
2018-12-20T07:34:47.894Z,99.35
2018-12-20T07:37:47.151Z,99.80
2018-12-20T07:40:50.608Z,99.53
2018-12-20T07:43:54.167Z,100.23
2018-12-20T07:46:57.947Z,99.75
2018-12-20T07:50:01.480Z,99.57
2018-12-20T07:53:04.957Z,99.30
2018-12-20T07:56:08.425Z,100.09
2018-12-20T07:59:11.895Z,99.88
2018-12-20T08:02:15.490Z,100.22
2018-12-20T08:05:19.009Z,100.46
2018-12-20T08:08:22.570Z,100.45
2018-12-20T08:11:26.061Z,100.52
2018-12-20T08:14:29.510Z,100.56
2018-12-20T08:17:33.083Z,99.66
2018-12-20T08:20:36.706Z,100.68
2018-12-20T08:23:40.233Z,100.91
2018-12-20T08:26:43.801Z,101.65
2018-12-20T08:29:47.418Z,101.20
2018-12-20T08:32:50.923Z,101.36
2018-12-20T08:35:54.461Z,101.57
2018-12-20T08:38:58.051Z,100.74
2018-12-20T08:42:01.692Z,99.98
2018-12-20T08:45:05.678Z,99.90
2018-12-20T08:48:09.167Z,100.25
2018-12-20T08:51:12.650Z,100.56
2018-12-20T08:54:16.568Z,100.75
2018-12-20T08:57:20.026Z,101.59
2018-12-20T09:00:23.531Z,101.76
2018-12-20T09:03:26.977Z,101.14
2018-12-20T09:06:30.489Z,101.67
2018-12-20T09:09:34.529Z,101.73
2018-12-20T09:12:38.042Z,101.98
2018-12-20T09:15:41.517Z,102.36
2018-12-20T09:18:44.995Z,102.37
2018-12-20T09:21:48.557Z,102.01
2018-12-20T09:24:52.111Z,102.10
2018-12-20T09:27:55.630Z,101.46
2018-12-20T09:30:59.466Z,100.97
2018-12-20T09:34:02.982Z,101.23
2018-12-20T09:37:06.570Z,101.41
2018-12-20T09:40:10.194Z,101.54
2018-12-20T09:43:13.705Z,101.62
2018-12-20T09:46:17.286Z,102.01
2018-12-20T09:49:20.876Z,101.19
2018-12-20T09:52:24.462Z,100.53
2018-12-20T09:55:28.046Z,101.04
2018-12-20T09:58:31.626Z,100.49
2018-12-20T10:01:35.182Z,99.98
2018-12-20T10:04:38.710Z,99.43
2018-12-20T10:07:42.486Z,98.57
2018-12-20T10:10:46.083Z,99.28
2018-12-20T10:13:49.602Z,99.30
2018-12-20T10:16:53.521Z,99.21
2018-12-20T10:19:57.078Z,98.27
2018-12-20T10:23:00.553Z,98.15
2018-12-20T10:26:04.123Z,98.26
2018-12-20T10:29:07.647Z,98.58
2018-12-20T10:32:11.201Z,97.98
2018-12-20T10:35:14.700Z,97.21
2018-12-20T10:38:18.314Z,97.37
2018-12-20T10:41:21.831Z,96.54
2018-12-20T10:44:25.358Z,95.81
2018-12-20T10:47:29.787Z,97.21
2018-12-20T10:50:33.460Z,96.73
2018-12-20T10:53:37.046Z,96.76
2018-12-20T10:56:40.722Z,96.30
2018-12-20T10:59:44.293Z,96.37
2018-12-20T11:02:53.151Z,96.86
2018-12-20T11:06:01.544Z,94.60
2018-12-20T11:09:12.684Z,95.31
2018-12-20T11:12:20.467Z,94.69
2018-12-20T11:15:24.212Z,93.93
2018-12-20T11:18:27.842Z,93.43
2018-12-20T11:21:31.390Z,94.42
2018-12-20T11:24:35.938Z,93.68
2018-12-20T11:27:39.705Z,92.07
2018-12-20T11:30:43.242Z,93.12
2018-12-20T11:33:46.797Z,93.88
2018-12-20T11:36:50.300Z,92.34
2018-12-20T11:39:59.395Z,92.58
2018-12-20T11:42:59.680Z,92.13
2018-12-20T11:46:03.296Z,93.76
2018-12-20T11:49:06.953Z,94.07
2018-12-20T11:52:10.441Z,92.83
2018-12-20T11:55:13.970Z,92.67
2018-12-20T11:58:17.487Z,91.92
2018-12-20T12:01:21.111Z,90.23
2018-12-20T12:04:24.698Z,91.20
2018-12-20T12:07:28.282Z,91.85
2018-12-20T12:10:31.931Z,92.51
2018-12-20T12:13:35.585Z,90.91
2018-12-20T12:16:39.224Z,90.49
2018-12-20T12:19:42.869Z,90.69
2018-12-20T12:22:46.385Z,91.48
2018-12-20T12:25:49.984Z,91.19
2018-12-20T12:28:53.749Z,91.28
2018-12-20T12:31:57.215Z,91.36
2018-12-20T12:35:00.690Z,91.19
2018-12-20T12:38:04.265Z,90.76
2018-12-20T12:41:07.875Z,91.58
2018-12-20T12:44:11.370Z,91.84
2018-12-20T12:47:16.972Z,92.12
2018-12-20T12:50:20.490Z,91.94
2018-12-20T12:53:24.148Z,91.63
2018-12-20T12:56:27.643Z,92.35
2018-12-20T12:59:31.120Z,92.15
2018-12-20T13:02:34.614Z,91.11
2018-12-20T13:05:38.149Z,91.42
2018-12-20T13:08:41.702Z,91.12
2018-12-20T13:11:45.226Z,91.05
2018-12-20T13:14:48.762Z,91.23
2018-12-20T13:17:52.255Z,92.55
2018-12-20T13:20:55.826Z,91.29
2018-12-20T13:24:00.009Z,91.89
2018-12-20T13:27:05.640Z,91.90
2018-12-20T13:30:11.501Z,92.67
2018-12-20T13:33:15.095Z,91.98
2018-12-20T13:36:18.545Z,91.95
2018-12-20T13:39:22.081Z,91.74
2018-12-20T13:42:25.666Z,92.60
2018-12-20T13:45:29.949Z,92.35
2018-12-20T13:48:33.487Z,92.91
2018-12-20T13:51:37.016Z,92.55
2018-12-20T13:54:40.632Z,93.49
2018-12-20T13:57:44.310Z,93.32
2018-12-20T14:00:47.855Z,93.70
2018-12-20T14:03:51.329Z,93.76
2018-12-20T14:06:54.860Z,94.85
2018-12-20T14:09:58.359Z,95.39
2018-12-20T14:13:01.940Z,95.48
2018-12-20T14:16:05.558Z,96.34
2018-12-20T14:19:09.150Z,96.10
2018-12-20T14:22:12.754Z,95.68
2018-12-20T14:25:16.242Z,95.24
2018-12-20T14:28:19.742Z,95.80
2018-12-20T14:31:23.254Z,97.24
2018-12-20T14:34:26.690Z,98.05
2018-12-20T14:37:30.362Z,96.71
2018-12-20T14:40:33.898Z,96.75
2018-12-20T14:43:37.464Z,96.12
2018-12-20T14:46:41.025Z,95.35
2018-12-20T14:49:44.540Z,96.02
2018-12-20T14:52:48.111Z,95.43
2018-12-20T14:55:51.687Z,96.22
2018-12-20T14:58:55.251Z,96.83
2018-12-20T15:01:58.843Z,96.50
2018-12-20T15:05:02.380Z,96.21
2018-12-20T15:08:06.013Z,96.34
2018-12-20T15:11:09.501Z,96.05
2018-12-20T15:14:13.205Z,96.30
2018-12-20T15:17:16.795Z,98.21
2018-12-20T15:20:20.313Z,97.37
2018-12-20T15:23:23.803Z,96.85
2018-12-20T15:26:27.313Z,97.17
2018-12-20T15:29:30.844Z,96.09
2018-12-20T15:32:34.344Z,95.89
2018-12-20T15:35:38.021Z,94.86
2018-12-20T15:38:41.698Z,95.43
2018-12-20T15:41:45.253Z,93.93
2018-12-20T15:44:48.874Z,96.26
2018-12-20T15:47:52.345Z,98.33
2018-12-20T15:50:55.883Z,97.42
2018-12-20T15:59:32.990Z,98.47
2018-12-20T16:02:36.723Z,97.46
2018-12-20T16:05:40.279Z,96.47
2018-12-20T16:08:43.848Z,96.05
2018-12-20T16:11:47.585Z,95.35
2018-12-20T16:14:51.072Z,96.09
2018-12-20T16:17:54.633Z,96.48
2018-12-20T16:20:58.265Z,96.43
2018-12-20T16:24:01.760Z,96.05
2018-12-20T16:27:05.369Z,97.09
2018-12-20T16:30:10.996Z,97.93
2018-12-20T16:33:14.734Z,97.17
2018-12-20T16:36:18.304Z,97.83
2018-12-20T16:39:21.835Z,98.00
2018-12-20T16:42:25.425Z,97.02
2018-12-20T16:45:28.960Z,97.45
2018-12-20T16:48:32.473Z,97.06
2018-12-20T16:51:36.149Z,96.79
2018-12-20T16:54:39.749Z,95.76
2018-12-20T16:57:43.286Z,95.55
2018-12-20T17:00:46.922Z,95.89
2018-12-20T17:03:50.477Z,96.48
2018-12-20T17:06:54.254Z,97.02
2018-12-20T17:09:57.865Z,97.58
2018-12-20T17:13:01.479Z,97.94
2018-12-20T17:16:05.202Z,97.80
2018-12-20T17:19:08.712Z,98.15
2018-12-20T17:22:12.251Z,98.60
2018-12-20T17:25:15.907Z,97.81
2018-12-20T17:28:19.433Z,97.80
2018-12-20T17:31:22.927Z,96.86
2018-12-20T17:34:26.429Z,97.02
2018-12-20T17:37:30.729Z,98.58
2018-12-20T17:40:34.219Z,99.67
2018-12-20T17:43:37.722Z,99.92
2018-12-20T17:46:41.269Z,100.75
2018-12-20T17:49:44.832Z,101.27
2018-12-20T17:52:48.519Z,100.84
2018-12-20T17:55:52.013Z,100.58
2018-12-20T17:58:55.504Z,100.46
2018-12-20T18:01:59.059Z,101.33
2018-12-20T18:05:06.845Z,103.34
2018-12-20T18:08:08.084Z,104.03
2018-12-20T18:11:11.602Z,103.93
2018-12-20T18:14:15.067Z,104.22
2018-12-20T18:17:18.634Z,104.46
2018-12-20T18:20:22.098Z,103.59
2018-12-20T18:23:25.696Z,103.97
2018-12-20T18:26:29.383Z,104.47
2018-12-20T18:29:33.014Z,104.84
2018-12-20T18:32:36.583Z,104.90
2018-12-20T18:35:40.159Z,104.68
2018-12-20T18:38:43.749Z,104.52
2018-12-20T18:41:47.254Z,104.81
2018-12-20T18:44:50.859Z,104.78
2018-12-20T18:47:54.373Z,105.04
2018-12-20T18:50:57.841Z,105.16
2018-12-20T18:54:01.332Z,105.16
2018-12-20T18:57:04.853Z,105.25
2018-12-20T19:00:10.240Z,104.84
2018-12-20T19:03:13.725Z,104.56
2018-12-20T19:06:17.337Z,104.48
2018-12-20T19:09:20.849Z,104.76
2018-12-20T19:12:24.258Z,104.92
2018-12-20T19:15:27.718Z,105.03
2018-12-20T19:18:31.154Z,104.95
2018-12-20T19:21:34.715Z,105.08
2018-12-20T19:24:38.325Z,104.90
2018-12-20T19:27:41.869Z,105.58
2018-12-20T19:30:45.359Z,105.72
2018-12-20T19:33:48.854Z,105.54
2018-12-20T19:36:52.364Z,106.19
2018-12-20T19:40:01.197Z,106.25
2018-12-20T19:43:04.984Z,106.58
2018-12-20T19:46:08.475Z,106.39
2018-12-20T19:49:12.029Z,106.30
2018-12-20T19:52:15.581Z,106.25
2018-12-20T19:55:19.042Z,105.78
2018-12-20T19:58:22.539Z,105.84
2018-12-20T20:01:26.110Z,106.09
2018-12-20T20:04:29.642Z,106.42
2018-12-20T20:07:33.144Z,106.52
2018-12-20T20:10:36.713Z,106.19
2018-12-20T20:13:40.212Z,106.20
2018-12-20T20:16:50.772Z,105.80
2018-12-20T20:19:49.233Z,105.86
2018-12-20T20:22:52.908Z,106.02
2018-12-20T20:25:56.528Z,105.90
2018-12-20T20:29:00.003Z,105.81
2018-12-20T20:32:03.662Z,105.97
2018-12-20T20:35:07.698Z,106.11
2018-12-20T20:38:11.242Z,105.74
2018-12-20T20:41:14.848Z,105.62
2018-12-20T20:44:18.429Z,105.67
2018-12-20T20:47:22.182Z,105.25
2018-12-20T20:50:26.110Z,105.21
2018-12-20T20:53:29.674Z,104.61
2018-12-20T20:56:33.218Z,105.42
2018-12-20T20:59:36.785Z,105.39
2018-12-20T21:02:40.308Z,105.53
2018-12-20T21:05:43.864Z,105.67
2018-12-20T21:08:49.186Z,105.77
2018-12-20T21:11:52.655Z,105.98
2018-12-20T21:14:56.254Z,106.00
2018-12-20T21:17:59.895Z,106.13
2018-12-20T21:21:03.362Z,106.23
2018-12-20T21:24:07.071Z,106.31
2018-12-20T21:27:10.773Z,106.34
2018-12-20T21:30:14.308Z,106.10
2018-12-20T21:33:17.980Z,105.73
2018-12-20T21:36:21.514Z,105.71
2018-12-20T21:39:25.063Z,105.58
2018-12-20T21:42:28.707Z,105.68
2018-12-20T21:45:32.383Z,106.06
2018-12-20T21:48:35.897Z,106.18
2018-12-20T21:51:39.409Z,106.00
2018-12-20T21:54:43.042Z,105.77
2018-12-20T21:57:46.578Z,105.68
2018-12-20T22:00:50.149Z,105.21
2018-12-20T22:03:54.426Z,105.18
2018-12-20T22:06:57.923Z,105.29
2018-12-20T22:10:01.628Z,105.30
2018-12-20T22:13:05.137Z,105.57
2018-12-20T22:16:08.794Z,106.00
2018-12-20T22:19:12.444Z,105.90
2018-12-20T22:22:15.981Z,105.62
2018-12-20T22:25:19.893Z,105.26
2018-12-20T22:28:23.714Z,105.29
2018-12-20T22:31:27.357Z,105.78
2018-12-20T22:34:31.470Z,106.03
2018-12-20T22:37:34.994Z,106.11
2018-12-20T22:40:38.583Z,106.00
2018-12-20T22:43:42.077Z,105.88
2018-12-20T22:46:45.727Z,106.04
2018-12-20T22:49:49.387Z,106.06
2018-12-20T22:52:52.895Z,105.48
2018-12-20T22:55:56.456Z,105.80
2018-12-20T22:58:59.997Z,105.44
2018-12-20T23:02:03.736Z,105.07
2018-12-20T23:05:07.436Z,104.73
2018-12-20T23:08:10.975Z,104.77
2018-12-20T23:11:14.528Z,104.79
2018-12-20T23:14:18.223Z,104.64
2018-12-20T23:17:22.458Z,104.65
2018-12-20T23:20:26.176Z,104.54
2018-12-20T23:23:29.688Z,104.69
2018-12-20T23:26:33.226Z,104.36
2018-12-20T23:29:36.788Z,104.31
2018-12-20T23:32:40.272Z,103.99
2018-12-20T23:35:43.901Z,104.34
2018-12-20T23:38:47.451Z,104.67
2018-12-20T23:41:50.938Z,104.39
2018-12-20T23:44:54.871Z,104.25
2018-12-20T23:47:58.361Z,104.45
2018-12-20T23:51:02.807Z,104.45
2018-12-20T23:54:06.352Z,104.49
2018-12-20T23:57:09.956Z,104.27
